Tiger — 9HA2271 — position and weather

sailwx.info

Track history (hours):
 
Tides and Currents Weather Stations Pressure Air Temp Water Temp Dewpoint Dewpoint Depression Visibility Wind Speed Wind Dir Waves Ship Positions

Tiger

Last reported at 2015-Apr-19 06:15 UTC. Time now 2015-Apr-19 10:58 UTC.
Position N 50°53' W 001°24'.

Length 232 m; draft 9.8 m.

Type: Cargo ship. MMSI: 248223000.

Date/timePositionNaut miles runAvg speedWind from/ knotsBaromVisibWave heightAir tempDewpointWater temp
2015-Apr-19 06:15N 50°53' W 001°24'4 5.6
2015-Apr-19 05:33N 50°51' W 001°20'1211.8
2015-Apr-19 04:33N 50°44' W 001°04'1111.0
2015-Apr-19 03:33N 50°36' W 000°51'1313.4
2015-Apr-19 02:33N 50°34' W 000°31'1816.9
2015-Apr-19 01:29N 50°31' W 000°03'1617.1
2015-Apr-19 00:33N 50°35' E 000°22'1616.1
2015-Apr-18 23:33N 50°43' E 000°44'1616.0
2015-Apr-18 22:33N 50°52' E 001°05'1615.6
2015-Apr-18 21:33N 51°02' E 001°23'1818.2
2015-Apr-18 20:33N 51°14' E 001°46'1615.8
2015-Apr-18 19:33N 51°24' E 002°05'1616.2
2015-Apr-18 18:33N 51°23' E 002°31'1716.8
2015-Apr-18 17:33N 51°23' E 002°58'10 9.9
2015-Apr-18 16:33N 51°20' E 003°13'1 0.5
2015-Apr-18 15:33N 51°20' E 003°13'1 0.7
2015-Apr-18 14:32N 51°19' E 003°14'0 0.0
2015-Apr-18 13:32N 51°19' E 003°14'0 0.0
2015-Apr-18 12:31N 51°19' E 003°14'0 0.0
2015-Apr-18 11:31N 51°19' E 003°14'0 0.0
2015-Apr-18 10:32N 51°19' E 003°14'0 0.0
2015-Apr-18 09:32N 51°19' E 003°14'0 0.0
2015-Apr-18 08:31N 51°19' E 003°14'0 0.0
2015-Apr-18 07:32N 51°19' E 003°14'0 0.0
2015-Apr-18 06:32N 51°19' E 003°14'0 0.0
2015-Apr-18 05:31N 51°19' E 003°14'0 0.0
2015-Apr-18 04:31N 51°19' E 003°14'0 0.0
2015-Apr-18 03:32N 51°19' E 003°14'0 0.0
2015-Apr-18 02:31N 51°19' E 003°14'0 0.0
2015-Apr-18 01:31N 51°19' E 003°14'0 0.0
2015-Apr-18 00:31N 51°19' E 003°14'0 0.0
2015-Apr-17 23:32N 51°19' E 003°14'0 0.0
2015-Apr-17 22:31N 51°19' E 003°14'0 0.0
2015-Apr-17 21:31N 51°19' E 003°14'0 0.0
2015-Apr-17 20:31N 51°19' E 003°14'0 0.0
2015-Apr-17 19:31N 51°19' E 003°14'0 0.0
2015-Apr-17 18:31N 51°19' E 003°14'0 0.0
2015-Apr-17 17:31N 51°19' E 003°14'0 0.0
2015-Apr-17 16:31N 51°19' E 003°14'0 0.0
2015-Apr-17 15:31N 51°19' E 003°14'0 0.0
2015-Apr-17 14:31N 51°19' E 003°14'0 0.0
2015-Apr-17 13:31N 51°19' E 003°14'0 0.0
2015-Apr-17 12:31N 51°19' E 003°14'0 0.0
2015-Apr-17 11:31N 51°19' E 003°14'0 0.0
2015-Apr-17 10:31N 51°19' E 003°14'0 0.0
2015-Apr-17 09:31N 51°19' E 003°14'0 0.0
2015-Apr-17 08:31N 51°19' E 003°14'0 0.0
2015-Apr-17 07:31N 51°19' E 003°14'0 0.0
2015-Apr-17 06:31N 51°19' E 003°14'0 0.0
2015-Apr-17 05:31N 51°19' E 003°14'0 0.0
2015-Apr-17 04:31N 51°19' E 003°14'0 0.0
2015-Apr-17 03:31N 51°19' E 003°14'0 0.0
2015-Apr-17 02:31N 51°19' E 003°14'0 0.0
2015-Apr-17 01:31N 51°19' E 003°14'0 0.0
2015-Apr-17 00:31N 51°19' E 003°14'0 0.0
2015-Apr-16 23:31N 51°19' E 003°14'0 0.0
2015-Apr-16 22:31N 51°19' E 003°14'0 0.0
2015-Apr-16 21:31N 51°19' E 003°14'0 0.0
2015-Apr-16 20:31N 51°19' E 003°14'1 1.2
2015-Apr-16 19:28N 51°20' E 003°13'1 1.1
2015-Apr-16 18:33N 51°21' E 003°12'1111.3
2015-Apr-16 17:33N 51°22' E 002°54'9 8.9
2015-Apr-16 16:34N 51°27' E 002°42'1616.2
2015-Apr-16 15:34N 51°43' E 002°44'1515.2
2015-Apr-16 14:33N 51°59' E 002°46'1615.8
2015-Apr-16 13:34N 52°11' E 002°60'1515.3
2015-Apr-16 12:34N 52°24' E 003°14'1515.3
2015-Apr-16 11:34N 52°37' E 003°29'1616.2
2015-Apr-16 10:33N 52°49' E 003°46'1717.2
2015-Apr-16 09:34N 53°01' E 004°06'2118.0
2015-Apr-16 08:25N 53°16' E 004°29'1517.5
2015-Apr-16 07:34N 53°29' E 004°42'1717.0
2015-Apr-16 06:34N 53°36' E 005°08'1615.9
2015-Apr-16 05:34N 53°41' E 005°34'1615.8
2015-Apr-16 04:33N 53°46' E 005°59'2116.1
2015-Apr-16 03:17N 53°50' E 006°33'2117.1
2015-Apr-16 02:03N 53°56' E 007°07'917.5
2015-Apr-16 01:34N 53°57' E 007°22'1414.4
2015-Apr-16 00:33N 53°54' E 007°45'1616.1
2015-Apr-15 23:34N 53°47' E 008°10'1717.2
2015-Apr-15 22:33N 53°35' E 008°32'1 1.0
2015-Apr-15 21:34N 53°34' E 008°33'0 0.3
2015-Apr-15 20:31N 53°35' E 008°34'0 0.0
2015-Apr-15 19:31N 53°35' E 008°34'0 0.0
2015-Apr-15 18:31N 53°35' E 008°34'0 0.0
2015-Apr-15 17:31N 53°35' E 008°34'0 0.0
2015-Apr-15 16:31N 53°35' E 008°34'0 0.0
2015-Apr-15 15:31N 53°35' E 008°34'0 0.0
2015-Apr-15 14:31N 53°35' E 008°34'0 0.0
2015-Apr-15 13:31N 53°35' E 008°34'0 0.0
2015-Apr-15 12:31N 53°35' E 008°34'0 0.0
2015-Apr-15 11:31N 53°35' E 008°34'0 0.0
2015-Apr-15 10:28N 53°35' E 008°34'0 0.0
2015-Apr-15 09:31N 53°35' E 008°34'0 0.0
2015-Apr-15 08:31N 53°35' E 008°34'0 0.0
2015-Apr-15 07:31N 53°35' E 008°34'0 0.0
2015-Apr-15 06:31N 53°35' E 008°34'0 0.0
2015-Apr-15 05:31N 53°35' E 008°34'0 0.0
2015-Apr-15 04:31N 53°35' E 008°34'0 0.0
2015-Apr-15 03:31N 53°35' E 008°34'0 0.5
2015-Apr-15 02:33N 53°34' E 008°33'7 6.6
2015-Apr-15 01:34N 53°39' E 008°25'1615.7
2015-Apr-15 00:34N 53°49' E 008°06'1313.1
2015-Apr-14 23:33N 53°53' E 007°44'1211.6
2015-Apr-14 22:33N 54°03' E 007°33'1212.1
2015-Apr-14 21:33N 54°13' E 007°23'6 5.7
2015-Apr-14 20:33N 54°15' E 007°14'2 1.6
2015-Apr-14 19:33N 54°17' E 007°13'6 5.7
2015-Apr-14 18:33N 54°22' E 007°17'2 1.8
2015-Apr-14 17:33N 54°20' E 007°16'2 1.8
2015-Apr-14 16:33N 54°18' E 007°15'2 1.7
2015-Apr-14 15:33N 54°17' E 007°13'1 0.6
2015-Apr-14 14:33N 54°17' E 007°14'1 0.7
2015-Apr-14 13:32N 54°18' E 007°14'2 1.8
2015-Apr-14 12:33N 54°16' E 007°14'2 2.0
2015-Apr-14 11:33N 54°14' E 007°15'5 5.3
2015-Apr-14 10:33N 54°19' E 007°11'2 1.9
2015-Apr-14 09:33N 54°17' E 007°13'4 4.3
2015-Apr-14 08:33N 54°14' E 007°18'1 1.4
2015-Apr-14 07:33N 54°15' E 007°16'3 3.1
2015-Apr-14 06:33N 54°17' E 007°12'2 1.8
2015-Apr-14 05:33N 54°18' E 007°09'1 1.4
2015-Apr-14 04:33N 54°17' E 007°10'4 4.1
2015-Apr-14 03:33N 54°18' E 007°16'2 2.4
2015-Apr-14 02:33N 54°18' E 007°12'1 1.0
2015-Apr-14 01:33N 54°18' E 007°10'1 0.6
2015-Apr-14 00:33N 54°18' E 007°11'3 3.3
2015-Apr-13 23:33N 54°15' E 007°13'1 1.3
2015-Apr-13 22:33N 54°16' E 007°11'1 1.0
2015-Apr-13 21:30N 54°17' E 007°11'1 0.9
2015-Apr-13 20:33N 54°17' E 007°11'0 0.2
2015-Apr-13 19:33N 54°18' E 007°11'5 4.7
2015-Apr-13 18:33N 54°16' E 007°18'1 0.9
2015-Apr-13 17:33N 54°17' E 007°17'1 1.3
2015-Apr-13 16:33N 54°17' E 007°15'2 1.6
2015-Apr-13 15:33N 54°16' E 007°12'4 4.2
2015-Apr-13 14:33N 54°20' E 007°16'3 2.5
2015-Apr-13 13:33N 54°22' E 007°17'2 1.9
2015-Apr-13 12:33N 54°21' E 007°14'2 2.0
2015-Apr-13 11:33N 54°20' E 007°12'6 6.0
2015-Apr-13 10:33N 54°14' E 007°11'4 4.1
2015-Apr-13 09:33N 54°18' E 007°13'0 0.3
2015-Apr-13 08:33N 54°18' E 007°14'4 4.1
2015-Apr-13 07:33N 54°14' E 007°11'3 3.1
2015-Apr-13 06:33N 54°17' E 007°13'1 1.0
2015-Apr-13 05:33N 54°17' E 007°15'2 2.1
2015-Apr-13 04:32N 54°16' E 007°13'7 7.4
2015-Apr-13 03:34N 54°22' E 007°19'3 2.9
2015-Apr-13 02:33N 54°20' E 007°15'3 3.0
2015-Apr-13 01:33N 54°18' E 007°11'3 3.1
2015-Apr-13 00:33N 54°16' E 007°14'2 1.7
2015-Apr-12 23:33N 54°15' E 007°16'3 2.6
2015-Apr-12 22:33N 54°16' E 007°12'1 1.3
2015-Apr-12 21:33N 54°17' E 007°14'5 4.6
2015-Apr-12 20:33N 54°14' E 007°20'5 5.2
2015-Apr-12 19:33N 54°18' E 007°14'2 1.9
2015-Apr-12 18:33N 54°17' E 007°11'2 1.5
2015-Apr-12 17:33N 54°17' E 007°13'4 4.4
2015-Apr-12 16:33N 54°21' E 007°15'2 1.8
2015-Apr-12 15:33N 54°20' E 007°13'1 1.0
2015-Apr-12 14:33N 54°20' E 007°11'1 1.1
2015-Apr-12 13:33N 54°19' E 007°11'5 5.5
2015-Apr-12 12:33N 54°24' E 007°10'8 7.8
2015-Apr-12 11:33N 54°32' E 007°10'2 1.7
2015-Apr-12 10:33N 54°30' E 007°11'2 1.7
2015-Apr-12 09:33N 54°29' E 007°12'2 1.7
2015-Apr-12 08:34N 54°27' E 007°13'2 2.3
2015-Apr-12 07:33N 54°25' E 007°14'2 2.1
2015-Apr-12 06:33N 54°23' E 007°15'2 2.4
2015-Apr-12 05:33N 54°21' E 007°16'2 2.2
2015-Apr-12 04:33N 54°18' E 007°17'2 2.4
2015-Apr-12 03:33N 54°17' E 007°20'1211.6
2015-Apr-12 02:33N 54°27' E 007°12'1313.1
2015-Apr-12 01:33N 54°39' E 007°02'1515.4
2015-Apr-12 00:33N 54°53' E 006°51'1615.3
2015-Apr-11 23:33N 55°08' E 006°42'1514.8
2015-Apr-11 22:33N 55°22' E 006°43'1514.5
2015-Apr-11 21:33N 55°37' E 006°45'17113.0
2015-Apr-11 08:24N 57°55' E 009°48'1011.7
2015-Apr-11 07:33N 57°57' E 010°07'1413.8
2015-Apr-11 06:33N 57°51' E 010°30'1313.0
2015-Apr-11 05:34N 57°46' E 010°52'1212.4
2015-Apr-11 04:33N 57°37' E 011°08'1312.8
2015-Apr-11 03:33N 57°28' E 011°26'1312.9
2015-Apr-11 02:33N 57°16' E 011°34'1212.5
2015-Apr-11 01:34N 57°05' E 011°41'1212.3
2015-Apr-11 00:33N 56°53' E 011°49'1212.2
2015-Apr-10 23:33N 56°41' E 011°56'1212.4
2015-Apr-10 22:34N 56°29' E 012°01'1212.3
2015-Apr-10 21:33N 56°17' E 012°07'1212.5
2015-Apr-10 20:34N 56°10' E 012°26'1312.5
2015-Apr-10 19:34N 56°01' E 012°40'1514.7
2015-Apr-10 18:34N 55°47' E 012°50'1111.2
2015-Apr-10 17:33N 55°37' E 012°60'0 0.2
2015-Apr-10 16:32N 55°37' E 012°60'0 0.0
2015-Apr-10 15:32N 55°37' E 012°60'0 0.0
2015-Apr-10 14:32N 55°37' E 012°60'0 0.0
2015-Apr-10 13:32N 55°37' E 012°60'0 0.0
2015-Apr-10 12:32N 55°37' E 012°60'0 0.0
2015-Apr-10 11:32N 55°37' E 012°60'0 0.0
2015-Apr-10 10:32N 55°37' E 012°60'0 0.0
2015-Apr-10 09:32N 55°37' E 012°60'0 0.0
2015-Apr-10 08:29N 55°37' E 012°60'0 0.0
2015-Apr-10 07:32N 55°37' E 012°60'0 0.0
2015-Apr-10 06:32N 55°37' E 012°60'0 0.0
2015-Apr-10 05:32N 55°37' E 012°60'0 0.0
2015-Apr-10 04:32N 55°37' E 012°60'0 0.0
2015-Apr-10 03:32N 55°37' E 012°60'0 0.0
2015-Apr-10 02:32N 55°37' E 012°60'0 0.0
2015-Apr-10 01:29N 55°37' E 012°60'0 0.0
2015-Apr-10 00:32N 55°37' E 012°60'0 0.0
2015-Apr-09 23:32N 55°37' E 012°60'0 0.0
2015-Apr-09 22:32N 55°37' E 012°60'0 0.0
2015-Apr-09 21:32N 55°37' E 012°60'0 0.0
2015-Apr-09 20:32N 55°37' E 012°60'0 0.0
2015-Apr-09 19:32N 55°37' E 012°60'0 0.0
2015-Apr-09 18:32N 55°37' E 012°60'0 0.0
2015-Apr-09 17:32N 55°37' E 012°60'0 0.0
2015-Apr-09 16:32N 55°37' E 012°60'0 0.0
2015-Apr-09 15:29N 55°37' E 012°60'0 0.0
2015-Apr-09 14:32N 55°37' E 012°60'0 0.0
2015-Apr-09 13:32N 55°37' E 012°60'0 0.0
2015-Apr-09 12:32N 55°37' E 012°60'0 0.0
2015-Apr-09 11:32N 55°37' E 012°60'0 0.0
2015-Apr-09 10:32N 55°37' E 012°60'0 0.0
2015-Apr-09 09:32N 55°37' E 012°60'0 0.0
2015-Apr-09 08:32N 55°37' E 012°60'0 0.0
2015-Apr-09 07:32N 55°37' E 012°60'0 0.0
2015-Apr-09 06:32N 55°37' E 012°60'  
Track history (hours):
 
Tides and Currents Weather Stations Pressure Air Temp Water Temp Dewpoint Dewpoint Depression Visibility Wind Speed Wind Dir Waves Ship Positions

Tiger

Last reported at 2015-Apr-19 06:15 UTC. Time now 2015-Apr-19 10:58 UTC.
Position N 50°53' W 001°24'.

Length 232 m; draft 9.8 m.

Type: Cargo ship. MMSI: 248223000.

Date/timePositionNaut miles runAvg speedWind from/ knotsBaromVisibWave heightAir tempDewpointWater temp
2015-Apr-19 06:15N 50°53' W 001°24'4 5.6
2015-Apr-19 05:33N 50°51' W 001°20'1211.8
2015-Apr-19 04:33N 50°44' W 001°04'1111.0
2015-Apr-19 03:33N 50°36' W 000°51'1313.4
2015-Apr-19 02:33N 50°34' W 000°31'1816.9
2015-Apr-19 01:29N 50°31' W 000°03'1617.1
2015-Apr-19 00:33N 50°35' E 000°22'1616.1
2015-Apr-18 23:33N 50°43' E 000°44'1616.0
2015-Apr-18 22:33N 50°52' E 001°05'1615.6
2015-Apr-18 21:33N 51°02' E 001°23'1818.2
2015-Apr-18 20:33N 51°14' E 001°46'1615.8
2015-Apr-18 19:33N 51°24' E 002°05'1616.2
2015-Apr-18 18:33N 51°23' E 002°31'1716.8
2015-Apr-18 17:33N 51°23' E 002°58'10 9.9
2015-Apr-18 16:33N 51°20' E 003°13'1 0.5
2015-Apr-18 15:33N 51°20' E 003°13'1 0.7
2015-Apr-18 14:32N 51°19' E 003°14'0 0.0
2015-Apr-18 13:32N 51°19' E 003°14'0 0.0
2015-Apr-18 12:31N 51°19' E 003°14'0 0.0
2015-Apr-18 11:31N 51°19' E 003°14'0 0.0
2015-Apr-18 10:32N 51°19' E 003°14'0 0.0
2015-Apr-18 09:32N 51°19' E 003°14'0 0.0
2015-Apr-18 08:31N 51°19' E 003°14'0 0.0
2015-Apr-18 07:32N 51°19' E 003°14'0 0.0
2015-Apr-18 06:32N 51°19' E 003°14'0 0.0
2015-Apr-18 05:31N 51°19' E 003°14'0 0.0
2015-Apr-18 04:31N 51°19' E 003°14'0 0.0
2015-Apr-18 03:32N 51°19' E 003°14'0 0.0
2015-Apr-18 02:31N 51°19' E 003°14'0 0.0
2015-Apr-18 01:31N 51°19' E 003°14'0 0.0
2015-Apr-18 00:31N 51°19' E 003°14'0 0.0
2015-Apr-17 23:32N 51°19' E 003°14'0 0.0
2015-Apr-17 22:31N 51°19' E 003°14'0 0.0
2015-Apr-17 21:31N 51°19' E 003°14'0 0.0
2015-Apr-17 20:31N 51°19' E 003°14'0 0.0
2015-Apr-17 19:31N 51°19' E 003°14'0 0.0
2015-Apr-17 18:31N 51°19' E 003°14'0 0.0
2015-Apr-17 17:31N 51°19' E 003°14'0 0.0
2015-Apr-17 16:31N 51°19' E 003°14'0 0.0
2015-Apr-17 15:31N 51°19' E 003°14'0 0.0
2015-Apr-17 14:31N 51°19' E 003°14'0 0.0
2015-Apr-17 13:31N 51°19' E 003°14'0 0.0
2015-Apr-17 12:31N 51°19' E 003°14'0 0.0
2015-Apr-17 11:31N 51°19' E 003°14'0 0.0
2015-Apr-17 10:31N 51°19' E 003°14'0 0.0
2015-Apr-17 09:31N 51°19' E 003°14'0 0.0
2015-Apr-17 08:31N 51°19' E 003°14'0 0.0
2015-Apr-17 07:31N 51°19' E 003°14'0 0.0
2015-Apr-17 06:31N 51°19' E 003°14'0 0.0
2015-Apr-17 05:31N 51°19' E 003°14'0 0.0
2015-Apr-17 04:31N 51°19' E 003°14'0 0.0
2015-Apr-17 03:31N 51°19' E 003°14'0 0.0
2015-Apr-17 02:31N 51°19' E 003°14'0 0.0
2015-Apr-17 01:31N 51°19' E 003°14'0 0.0
2015-Apr-17 00:31N 51°19' E 003°14'0 0.0
2015-Apr-16 23:31N 51°19' E 003°14'0 0.0
2015-Apr-16 22:31N 51°19' E 003°14'0 0.0
2015-Apr-16 21:31N 51°19' E 003°14'0 0.0
2015-Apr-16 20:31N 51°19' E 003°14'1 1.2
2015-Apr-16 19:28N 51°20' E 003°13'1 1.1
2015-Apr-16 18:33N 51°21' E 003°12'1111.3
2015-Apr-16 17:33N 51°22' E 002°54'9 8.9
2015-Apr-16 16:34N 51°27' E 002°42'1616.2
2015-Apr-16 15:34N 51°43' E 002°44'1515.2
2015-Apr-16 14:33N 51°59' E 002°46'1615.8
2015-Apr-16 13:34N 52°11' E 002°60'1515.3
2015-Apr-16 12:34N 52°24' E 003°14'1515.3
2015-Apr-16 11:34N 52°37' E 003°29'1616.2
2015-Apr-16 10:33N 52°49' E 003°46'1717.2
2015-Apr-16 09:34N 53°01' E 004°06'2118.0
2015-Apr-16 08:25N 53°16' E 004°29'1517.5
2015-Apr-16 07:34N 53°29' E 004°42'1717.0
2015-Apr-16 06:34N 53°36' E 005°08'1615.9
2015-Apr-16 05:34N 53°41' E 005°34'1615.8
2015-Apr-16 04:33N 53°46' E 005°59'2116.1
2015-Apr-16 03:17N 53°50' E 006°33'2117.1
2015-Apr-16 02:03N 53°56' E 007°07'917.5
2015-Apr-16 01:34N 53°57' E 007°22'1414.4
2015-Apr-16 00:33N 53°54' E 007°45'1616.1
2015-Apr-15 23:34N 53°47' E 008°10'1717.2
2015-Apr-15 22:33N 53°35' E 008°32'1 1.0
2015-Apr-15 21:34N 53°34' E 008°33'0 0.3
2015-Apr-15 20:31N 53°35' E 008°34'0 0.0
2015-Apr-15 19:31N 53°35' E 008°34'0 0.0
2015-Apr-15 18:31N 53°35' E 008°34'0 0.0
2015-Apr-15 17:31N 53°35' E 008°34'0 0.0
2015-Apr-15 16:31N 53°35' E 008°34'0 0.0
2015-Apr-15 15:31N 53°35' E 008°34'0 0.0
2015-Apr-15 14:31N 53°35' E 008°34'0 0.0
2015-Apr-15 13:31N 53°35' E 008°34'0 0.0
2015-Apr-15 12:31N 53°35' E 008°34'0 0.0
2015-Apr-15 11:31N 53°35' E 008°34'0 0.0
2015-Apr-15 10:28N 53°35' E 008°34'0 0.0
2015-Apr-15 09:31N 53°35' E 008°34'0 0.0
2015-Apr-15 08:31N 53°35' E 008°34'0 0.0
2015-Apr-15 07:31N 53°35' E 008°34'0 0.0
2015-Apr-15 06:31N 53°35' E 008°34'0 0.0
2015-Apr-15 05:31N 53°35' E 008°34'0 0.0
2015-Apr-15 04:31N 53°35' E 008°34'0 0.0
2015-Apr-15 03:31N 53°35' E 008°34'0 0.5
2015-Apr-15 02:33N 53°34' E 008°33'7 6.6
2015-Apr-15 01:34N 53°39' E 008°25'1615.7
2015-Apr-15 00:34N 53°49' E 008°06'1313.1
2015-Apr-14 23:33N 53°53' E 007°44'1211.6
2015-Apr-14 22:33N 54°03' E 007°33'1212.1
2015-Apr-14 21:33N 54°13' E 007°23'6 5.7
2015-Apr-14 20:33N 54°15' E 007°14'2 1.6
2015-Apr-14 19:33N 54°17' E 007°13'6 5.7
2015-Apr-14 18:33N 54°22' E 007°17'2 1.8
2015-Apr-14 17:33N 54°20' E 007°16'2 1.8
2015-Apr-14 16:33N 54°18' E 007°15'2 1.7
2015-Apr-14 15:33N 54°17' E 007°13'1 0.6
2015-Apr-14 14:33N 54°17' E 007°14'1 0.7
2015-Apr-14 13:32N 54°18' E 007°14'2 1.8
2015-Apr-14 12:33N 54°16' E 007°14'2 2.0
2015-Apr-14 11:33N 54°14' E 007°15'5 5.3
2015-Apr-14 10:33N 54°19' E 007°11'2 1.9
2015-Apr-14 09:33N 54°17' E 007°13'4 4.3
2015-Apr-14 08:33N 54°14' E 007°18'1 1.4
2015-Apr-14 07:33N 54°15' E 007°16'3 3.1
2015-Apr-14 06:33N 54°17' E 007°12'2 1.8
2015-Apr-14 05:33N 54°18' E 007°09'1 1.4
2015-Apr-14 04:33N 54°17' E 007°10'4 4.1
2015-Apr-14 03:33N 54°18' E 007°16'2 2.4
2015-Apr-14 02:33N 54°18' E 007°12'1 1.0
2015-Apr-14 01:33N 54°18' E 007°10'1 0.6
2015-Apr-14 00:33N 54°18' E 007°11'3 3.3
2015-Apr-13 23:33N 54°15' E 007°13'1 1.3
2015-Apr-13 22:33N 54°16' E 007°11'1 1.0
2015-Apr-13 21:30N 54°17' E 007°11'1 0.9
2015-Apr-13 20:33N 54°17' E 007°11'0 0.2
2015-Apr-13 19:33N 54°18' E 007°11'5 4.7
2015-Apr-13 18:33N 54°16' E 007°18'1 0.9
2015-Apr-13 17:33N 54°17' E 007°17'1 1.3
2015-Apr-13 16:33N 54°17' E 007°15'2 1.6
2015-Apr-13 15:33N 54°16' E 007°12'4 4.2
2015-Apr-13 14:33N 54°20' E 007°16'3 2.5
2015-Apr-13 13:33N 54°22' E 007°17'2 1.9
2015-Apr-13 12:33N 54°21' E 007°14'2 2.0
2015-Apr-13 11:33N 54°20' E 007°12'6 6.0
2015-Apr-13 10:33N 54°14' E 007°11'4 4.1
2015-Apr-13 09:33N 54°18' E 007°13'0 0.3
2015-Apr-13 08:33N 54°18' E 007°14'4 4.1
2015-Apr-13 07:33N 54°14' E 007°11'3 3.1
2015-Apr-13 06:33N 54°17' E 007°13'1 1.0
2015-Apr-13 05:33N 54°17' E 007°15'2 2.1
2015-Apr-13 04:32N 54°16' E 007°13'7 7.4
2015-Apr-13 03:34N 54°22' E 007°19'3 2.9
2015-Apr-13 02:33N 54°20' E 007°15'3 3.0
2015-Apr-13 01:33N 54°18' E 007°11'3 3.1
2015-Apr-13 00:33N 54°16' E 007°14'2 1.7
2015-Apr-12 23:33N 54°15' E 007°16'3 2.6
2015-Apr-12 22:33N 54°16' E 007°12'1 1.3
2015-Apr-12 21:33N 54°17' E 007°14'5 4.6
2015-Apr-12 20:33N 54°14' E 007°20'5 5.2
2015-Apr-12 19:33N 54°18' E 007°14'2 1.9
2015-Apr-12 18:33N 54°17' E 007°11'2 1.5
2015-Apr-12 17:33N 54°17' E 007°13'4 4.4
2015-Apr-12 16:33N 54°21' E 007°15'2 1.8
2015-Apr-12 15:33N 54°20' E 007°13'1 1.0
2015-Apr-12 14:33N 54°20' E 007°11'1 1.1
2015-Apr-12 13:33N 54°19' E 007°11'5 5.5
2015-Apr-12 12:33N 54°24' E 007°10'8 7.8
2015-Apr-12 11:33N 54°32' E 007°10'2 1.7
2015-Apr-12 10:33N 54°30' E 007°11'2 1.7
2015-Apr-12 09:33N 54°29' E 007°12'2 1.7
2015-Apr-12 08:34N 54°27' E 007°13'2 2.3
2015-Apr-12 07:33N 54°25' E 007°14'2 2.1
2015-Apr-12 06:33N 54°23' E 007°15'2 2.4
2015-Apr-12 05:33N 54°21' E 007°16'2 2.2
2015-Apr-12 04:33N 54°18' E 007°17'2 2.4
2015-Apr-12 03:33N 54°17' E 007°20'1211.6
2015-Apr-12 02:33N 54°27' E 007°12'1313.1
2015-Apr-12 01:33N 54°39' E 007°02'1515.4
2015-Apr-12 00:33N 54°53' E 006°51'1615.3
2015-Apr-11 23:33N 55°08' E 006°42'1514.8
2015-Apr-11 22:33N 55°22' E 006°43'1514.5
2015-Apr-11 21:33N 55°37' E 006°45'17113.0
2015-Apr-11 08:24N 57°55' E 009°48'1011.7
2015-Apr-11 07:33N 57°57' E 010°07'1413.8
2015-Apr-11 06:33N 57°51' E 010°30'1313.0
2015-Apr-11 05:34N 57°46' E 010°52'1212.4
2015-Apr-11 04:33N 57°37' E 011°08'1312.8
2015-Apr-11 03:33N 57°28' E 011°26'1312.9
2015-Apr-11 02:33N 57°16' E 011°34'1212.5
2015-Apr-11 01:34N 57°05' E 011°41'1212.3
2015-Apr-11 00:33N 56°53' E 011°49'1212.2
2015-Apr-10 23:33N 56°41' E 011°56'1212.4
2015-Apr-10 22:34N 56°29' E 012°01'1212.3
2015-Apr-10 21:33N 56°17' E 012°07'1212.5
2015-Apr-10 20:34N 56°10' E 012°26'1312.5
2015-Apr-10 19:34N 56°01' E 012°40'1514.7
2015-Apr-10 18:34N 55°47' E 012°50'1111.2
2015-Apr-10 17:33N 55°37' E 012°60'0 0.2
2015-Apr-10 16:32N 55°37' E 012°60'0 0.0
2015-Apr-10 15:32N 55°37' E 012°60'0 0.0
2015-Apr-10 14:32N 55°37' E 012°60'0 0.0
2015-Apr-10 13:32N 55°37' E 012°60'0 0.0
2015-Apr-10 12:32N 55°37' E 012°60'0 0.0
2015-Apr-10 11:32N 55°37' E 012°60'0 0.0
2015-Apr-10 10:32N 55°37' E 012°60'0 0.0
2015-Apr-10 09:32N 55°37' E 012°60'0 0.0
2015-Apr-10 08:29N 55°37' E 012°60'0 0.0
2015-Apr-10 07:32N 55°37' E 012°60'0 0.0
2015-Apr-10 06:32N 55°37' E 012°60'0 0.0
2015-Apr-10 05:32N 55°37' E 012°60'0 0.0
2015-Apr-10 04:32N 55°37' E 012°60'0 0.0
2015-Apr-10 03:32N 55°37' E 012°60'0 0.0
2015-Apr-10 02:32N 55°37' E 012°60'0 0.0
2015-Apr-10 01:29N 55°37' E 012°60'0 0.0
2015-Apr-10 00:32N 55°37' E 012°60'0 0.0
2015-Apr-09 23:32N 55°37' E 012°60'0 0.0
2015-Apr-09 22:32N 55°37' E 012°60'0 0.0
2015-Apr-09 21:32N 55°37' E 012°60'0 0.0
2015-Apr-09 20:32N 55°37' E 012°60'0 0.0
2015-Apr-09 19:32N 55°37' E 012°60'0 0.0
2015-Apr-09 18:32N 55°37' E 012°60'0 0.0
2015-Apr-09 17:32N 55°37' E 012°60'0 0.0
2015-Apr-09 16:32N 55°37' E 012°60'0 0.0
2015-Apr-09 15:29N 55°37' E 012°60'0 0.0
2015-Apr-09 14:32N 55°37' E 012°60'0 0.0
2015-Apr-09 13:32N 55°37' E 012°60'0 0.0
2015-Apr-09 12:32N 55°37' E 012°60'0 0.0
2015-Apr-09 11:32N 55°37' E 012°60'0 0.0
2015-Apr-09 10:32N 55°37' E 012°60'0 0.0
2015-Apr-09 09:32N 55°37' E 012°60'0 0.0
2015-Apr-09 08:32N 55°37' E 012°60'0 0.0
2015-Apr-09 07:32N 55°37' E 012°60'0 0.0
2015-Apr-09 06:32N 55°37' E 012°60'  

Dump ship's entire track history